createdAt,value
2023-03-07T00:02:37.610Z,10.16
2023-03-07T00:05:23.321Z,10.25
2023-03-07T00:08:09.568Z,10.30
2023-03-07T00:10:55.924Z,10.32
2023-03-07T00:13:42.068Z,10.25
2023-03-07T00:16:27.975Z,10.24
2023-03-07T00:19:14.154Z,10.31
2023-03-07T00:21:59.949Z,10.21
2023-03-07T00:24:48.628Z,10.06
2023-03-07T00:27:35.299Z,10.16
2023-03-07T00:30:21.184Z,10.09
2023-03-07T00:33:08.008Z,10.18
2023-03-07T00:36:02.658Z,10.09
2023-03-07T00:38:56.187Z,10.10
2023-03-07T00:41:42.225Z,10.13
2023-03-07T00:44:30.153Z,10.08
2023-03-07T00:47:15.946Z,10.12
2023-03-07T00:50:02.322Z,10.03
2023-03-07T00:52:48.128Z,10.18
2023-03-07T00:55:34.024Z,10.10
2023-03-07T00:58:20.684Z,10.09
2023-03-07T01:01:12.833Z,10.21
2023-03-07T01:03:59.619Z,10.16
2023-03-07T01:06:45.408Z,10.09
2023-03-07T01:09:31.362Z,10.22
2023-03-07T01:12:17.602Z,10.15
2023-03-07T01:15:05.425Z,10.28
2023-03-07T01:17:51.886Z,10.27
2023-03-07T01:20:38.998Z,10.29
2023-03-07T01:23:24.963Z,10.26
2023-03-07T01:26:20.330Z,10.15
2023-03-07T01:29:17.697Z,10.26
2023-03-07T01:32:04.080Z,10.25
2023-03-07T01:34:50.221Z,10.23
2023-03-07T01:37:36.979Z,10.19
2023-03-07T01:40:25.166Z,10.30
2023-03-07T01:43:23.249Z,10.28
2023-03-07T01:46:18.637Z,10.19
2023-03-07T01:49:21.403Z,10.31
2023-03-07T01:52:14.260Z,10.17
2023-03-07T01:55:28.607Z,10.18
2023-03-07T01:58:19.740Z,10.31
2023-03-07T02:01:08.958Z,10.21
2023-03-07T02:04:11.024Z,10.15
2023-03-07T02:06:57.012Z,10.03
2023-03-07T02:09:44.556Z,9.99
2023-03-07T02:12:30.541Z,10.03
2023-03-07T02:15:16.767Z,10.03
2023-03-07T02:18:03.665Z,10.03
2023-03-07T02:21:20.909Z,9.98
2023-03-07T02:24:32.735Z,9.96
2023-03-07T02:27:18.968Z,10.00
2023-03-07T02:30:05.709Z,9.91
2023-03-07T02:32:51.527Z,9.88
2023-03-07T02:35:37.345Z,9.79
2023-03-07T02:38:26.696Z,9.82
2023-03-07T02:41:13.256Z,9.80
2023-03-07T02:44:00.300Z,9.75
2023-03-07T02:46:46.854Z,9.75
2023-03-07T02:49:32.890Z,9.75
2023-03-07T02:52:20.299Z,9.73
2023-03-07T02:55:07.711Z,9.69
2023-03-07T02:57:56.721Z,9.77
2023-03-07T03:00:42.731Z,9.80
2023-03-07T03:03:28.590Z,9.82
2023-03-07T03:06:14.503Z,9.71
2023-03-07T03:09:00.730Z,9.81
2023-03-07T03:11:46.791Z,9.83
2023-03-07T03:14:33.653Z,9.82
2023-03-07T03:17:19.313Z,9.83
2023-03-07T03:20:11.784Z,9.74
2023-03-07T03:22:57.790Z,9.77
2023-03-07T03:25:43.641Z,9.78
2023-03-07T03:28:30.030Z,9.78
2023-03-07T03:31:16.362Z,9.68
2023-03-07T03:34:02.334Z,9.81
2023-03-07T03:36:49.291Z,9.83
2023-03-07T03:39:36.009Z,9.85
2023-03-07T03:42:22.984Z,9.74
2023-03-07T03:45:10.399Z,9.80
2023-03-07T03:47:56.391Z,9.82
2023-03-07T03:50:42.206Z,9.60
2023-03-07T03:53:28.197Z,9.63
2023-03-07T03:56:17.294Z,9.74
2023-03-07T03:59:03.676Z,9.72
2023-03-07T04:01:50.919Z,9.72
2023-03-07T04:04:38.278Z,9.66
2023-03-07T04:07:25.262Z,9.67
2023-03-07T04:10:11.627Z,9.73
2023-03-07T04:12:57.933Z,9.58
2023-03-07T04:15:44.029Z,9.66
2023-03-07T04:18:30.238Z,9.69
2023-03-07T04:21:16.064Z,9.67
2023-03-07T04:24:01.858Z,9.73
2023-03-07T04:26:50.132Z,9.69
2023-03-07T04:29:35.881Z,9.72
2023-03-07T04:32:40.207Z,9.62
2023-03-07T04:35:25.952Z,9.70
2023-03-07T04:38:14.459Z,9.70
2023-03-07T04:41:00.097Z,9.66
2023-03-07T04:43:47.078Z,9.66
2023-03-07T04:46:32.833Z,9.67
2023-03-07T04:49:18.754Z,9.65
2023-03-07T04:52:05.597Z,9.61
2023-03-07T04:54:51.870Z,9.61
2023-03-07T04:57:38.055Z,9.69
2023-03-07T05:00:25.069Z,9.68
2023-03-07T05:03:12.536Z,9.68
2023-03-07T05:06:05.415Z,9.62
2023-03-07T05:08:51.783Z,9.67
2023-03-07T05:11:37.684Z,9.65
2023-03-07T05:14:24.073Z,9.53
2023-03-07T05:17:10.839Z,9.51
2023-03-07T05:19:56.814Z,9.39
2023-03-07T05:22:43.261Z,9.48
2023-03-07T05:25:29.329Z,9.51
2023-03-07T05:28:16.988Z,9.43
2023-03-07T05:31:03.096Z,9.52
2023-03-07T05:33:49.949Z,9.52
2023-03-07T05:36:35.745Z,9.58
2023-03-07T05:39:22.996Z,9.57
2023-03-07T05:42:09.646Z,9.59
2023-03-07T05:44:56.612Z,9.63
2023-03-07T05:47:43.077Z,9.65
2023-03-07T05:50:31.780Z,9.69
2023-03-07T05:53:17.850Z,9.70
2023-03-07T05:56:04.999Z,9.71
2023-03-07T05:58:51.817Z,9.79
2023-03-07T06:01:38.390Z,9.75
2023-03-07T06:04:24.390Z,9.77
2023-03-07T06:07:10.343Z,9.63
2023-03-07T06:09:56.097Z,9.80
2023-03-07T06:12:41.914Z,9.82
2023-03-07T06:15:27.969Z,9.82
2023-03-07T06:18:21.759Z,9.79
2023-03-07T06:21:09.068Z,9.80
2023-03-07T06:24:00.174Z,9.80
2023-03-07T06:26:45.916Z,9.79
2023-03-07T06:29:32.940Z,9.78
2023-03-07T06:32:19.166Z,9.88
2023-03-07T06:35:05.479Z,9.88
2023-03-07T06:37:52.102Z,9.95
2023-03-07T06:40:38.181Z,9.96
2023-03-07T06:43:24.050Z,9.99
2023-03-07T06:46:10.640Z,9.99
2023-03-07T06:48:59.846Z,9.95
2023-03-07T06:51:56.535Z,9.98
2023-03-07T06:54:42.245Z,10.02
2023-03-07T06:57:28.118Z,10.10
2023-03-07T07:00:15.240Z,10.08
2023-03-07T07:03:01.433Z,10.14
2023-03-07T07:05:47.221Z,10.04
2023-03-07T07:08:33.620Z,10.17
2023-03-07T07:11:19.318Z,10.19
2023-03-07T07:14:05.865Z,10.25
2023-03-07T07:16:52.351Z,10.26
2023-03-07T07:19:38.776Z,10.22
2023-03-07T07:22:24.888Z,10.34
2023-03-07T07:25:11.290Z,10.25
2023-03-07T07:27:57.024Z,10.35
2023-03-07T07:30:43.321Z,10.41
2023-03-07T07:33:32.032Z,10.44
2023-03-07T07:36:18.070Z,10.39
2023-03-07T07:39:07.801Z,10.45
2023-03-07T07:41:56.412Z,10.55
2023-03-07T07:44:47.047Z,10.60
2023-03-07T07:47:34.114Z,10.57
2023-03-07T07:50:21.409Z,10.64
2023-03-07T07:53:07.264Z,10.59
2023-03-07T07:55:53.569Z,10.67
2023-03-07T07:58:40.703Z,10.76
2023-03-07T08:01:26.817Z,10.72
2023-03-07T08:04:12.656Z,10.77
2023-03-07T08:06:58.582Z,10.84
2023-03-07T08:09:44.379Z,10.84
2023-03-07T08:12:30.202Z,10.93
2023-03-07T08:15:17.175Z,10.95
2023-03-07T08:18:02.895Z,11.01
2023-03-07T08:20:48.783Z,11.06
2023-03-07T08:23:35.908Z,11.02
2023-03-07T08:26:21.812Z,11.19
2023-03-07T08:29:07.870Z,11.18
2023-03-07T08:31:54.485Z,11.39
2023-03-07T08:34:40.228Z,11.48
2023-03-07T08:37:26.131Z,11.55
2023-03-07T08:40:13.373Z,11.59
2023-03-07T08:42:59.691Z,11.68
2023-03-07T08:45:45.477Z,11.75
2023-03-07T08:48:31.430Z,11.85
2023-03-07T08:51:18.224Z,11.85
2023-03-07T08:54:04.940Z,11.82
2023-03-07T08:56:50.821Z,11.94
2023-03-07T08:59:36.621Z,11.86
2023-03-07T09:02:22.475Z,11.97
2023-03-07T09:05:08.625Z,11.99
2023-03-07T09:07:54.705Z,11.98
2023-03-07T09:10:40.510Z,11.97
2023-03-07T09:13:26.667Z,12.12
2023-03-07T09:16:12.536Z,12.10
2023-03-07T09:18:58.200Z,12.16
2023-03-07T09:21:44.102Z,12.07
2023-03-07T09:24:30.432Z,12.24
2023-03-07T09:27:16.201Z,12.28
2023-03-07T09:30:02.320Z,12.34
2023-03-07T09:32:49.257Z,12.47
2023-03-07T09:35:35.383Z,12.52
2023-03-07T09:38:21.163Z,12.54
2023-03-07T09:41:06.879Z,12.62
2023-03-07T09:44:13.012Z,12.59
2023-03-07T09:47:40.378Z,12.66
2023-03-07T09:50:39.510Z,12.73
2023-03-07T09:54:06.111Z,12.80
2023-03-07T09:57:02.764Z,12.89
2023-03-07T09:59:53.801Z,12.98
2023-03-07T10:03:06.340Z,12.95
2023-03-07T10:05:54.555Z,13.10
2023-03-07T10:08:40.884Z,13.17
2023-03-07T10:11:38.388Z,13.25
2023-03-07T10:14:50.048Z,13.30
2023-03-07T10:18:04.538Z,13.26
2023-03-07T10:21:21.686Z,13.43
2023-03-07T10:24:08.097Z,13.58
2023-03-07T10:27:09.791Z,13.60
2023-03-07T10:29:56.807Z,13.72
2023-03-07T10:32:48.436Z,13.74
2023-03-07T10:35:41.963Z,13.82
2023-03-07T10:38:39.926Z,13.75
2023-03-07T10:41:27.185Z,13.92
2023-03-07T10:44:19.124Z,13.78
2023-03-07T10:47:05.449Z,13.94
2023-03-07T10:49:54.971Z,13.99
2023-03-07T10:52:55.852Z,13.97
2023-03-07T10:55:44.372Z,14.11
2023-03-07T10:58:31.052Z,14.13
2023-03-07T11:01:18.841Z,14.20
2023-03-07T11:04:07.323Z,14.24
2023-03-07T11:06:55.700Z,14.21
2023-03-07T11:09:48.170Z,14.20
2023-03-07T11:12:45.359Z,14.05
2023-03-07T11:15:31.333Z,14.19
2023-03-07T11:18:30.273Z,14.07
2023-03-07T11:21:30.434Z,14.17
2023-03-07T11:24:37.785Z,14.15
2023-03-07T11:27:39.685Z,14.22
2023-03-07T11:30:42.673Z,14.24
2023-03-07T11:33:35.388Z,14.21
2023-03-07T11:36:31.070Z,14.32
2023-03-07T11:39:29.056Z,14.39
2023-03-07T11:42:26.428Z,14.31
2023-03-07T11:45:28.009Z,14.43
2023-03-07T11:48:22.777Z,14.56
2023-03-07T11:51:26.680Z,14.59
2023-03-07T11:54:21.587Z,14.78
2023-03-07T11:57:26.545Z,14.80
2023-03-07T12:00:38.966Z,15.05
2023-03-07T12:03:42.785Z,15.23
2023-03-07T12:07:05.191Z,15.04
2023-03-07T12:10:05.970Z,15.28
2023-03-07T12:13:24.778Z,15.48
2023-03-07T12:16:29.449Z,15.34
2023-03-07T12:19:38.414Z,15.33
2023-03-07T12:22:29.784Z,14.92
2023-03-07T12:25:19.690Z,15.09
2023-03-07T12:28:20.732Z,14.98
2023-03-07T12:31:17.733Z,15.16
2023-03-07T12:34:06.734Z,15.21
2023-03-07T12:36:57.279Z,15.22
2023-03-07T12:39:54.357Z,15.16
2023-03-07T12:43:12.922Z,15.17
2023-03-07T12:46:09.431Z,15.19
2023-03-07T12:49:01.262Z,15.24
2023-03-07T12:51:56.121Z,15.15
2023-03-07T12:54:46.231Z,15.19
2023-03-07T12:57:35.238Z,15.21
2023-03-07T13:00:22.994Z,15.25
2023-03-07T13:03:11.723Z,15.26
2023-03-07T13:05:58.136Z,15.21
2023-03-07T13:08:47.825Z,15.24
2023-03-07T13:11:34.612Z,15.00
2023-03-07T13:14:43.156Z,14.95
2023-03-07T13:17:35.123Z,15.21
2023-03-07T13:20:41.738Z,14.98
2023-03-07T13:23:28.565Z,15.13
2023-03-07T13:26:23.299Z,14.92
2023-03-07T13:29:09.202Z,15.05
2023-03-07T13:31:55.086Z,14.99
2023-03-07T13:34:46.675Z,15.00
2023-03-07T13:37:51.384Z,14.83
2023-03-07T13:40:37.163Z,14.87
2023-03-07T13:43:24.119Z,14.86
2023-03-07T13:46:45.794Z,14.58
2023-03-07T13:49:36.989Z,14.70
2023-03-07T13:52:23.147Z,14.79
2023-03-07T13:55:19.743Z,14.78
2023-03-07T13:58:16.616Z,14.75
2023-03-07T14:01:17.819Z,14.84
2023-03-07T14:04:14.047Z,14.70
2023-03-07T14:07:05.572Z,14.79
2023-03-07T14:10:21.473Z,14.74
2023-03-07T14:13:14.106Z,14.75
2023-03-07T14:16:15.332Z,14.72
2023-03-07T14:19:10.252Z,14.67
2023-03-07T14:22:13.070Z,14.37
2023-03-07T14:25:18.231Z,14.63
2023-03-07T14:28:22.652Z,14.63
2023-03-07T14:31:23.372Z,14.51
2023-03-07T14:34:21.383Z,14.66
2023-03-07T14:37:20.677Z,14.50
2023-03-07T14:40:26.891Z,14.70
2023-03-07T14:43:28.715Z,14.67
2023-03-07T14:46:20.937Z,14.73
2023-03-07T14:49:43.198Z,14.68
2023-03-07T14:52:31.790Z,14.75
2023-03-07T14:55:23.164Z,14.81
2023-03-07T14:58:19.786Z,14.73
2023-03-07T15:01:12.421Z,14.93
2023-03-07T15:03:58.270Z,14.93
2023-03-07T15:06:44.445Z,15.10
2023-03-07T15:09:32.373Z,15.16
2023-03-07T15:12:25.847Z,15.24
2023-03-07T15:15:23.028Z,15.25
2023-03-07T15:18:20.553Z,15.26
2023-03-07T15:21:07.801Z,15.25
2023-03-07T15:23:55.657Z,15.21
2023-03-07T15:26:49.312Z,15.17
2023-03-07T15:29:35.329Z,15.18
2023-03-07T15:32:39.113Z,15.07
2023-03-07T15:35:27.187Z,15.23
2023-03-07T15:38:21.578Z,15.27
2023-03-07T15:41:30.402Z,15.34
2023-03-07T15:44:18.357Z,15.62
2023-03-07T15:47:14.483Z,15.65
2023-03-07T15:50:05.050Z,15.80
2023-03-07T15:52:53.777Z,15.92
2023-03-07T15:55:40.332Z,15.88
2023-03-07T15:58:27.724Z,15.88
2023-03-07T16:01:25.413Z,15.67
2023-03-07T16:04:36.359Z,15.56
2023-03-07T16:07:22.204Z,15.58
2023-03-07T16:10:08.262Z,15.55
2023-03-07T16:12:54.816Z,15.45
2023-03-07T16:15:41.755Z,15.29
2023-03-07T16:18:30.022Z,15.05
2023-03-07T16:21:18.171Z,15.19
2023-03-07T16:24:05.162Z,15.04
2023-03-07T16:26:52.385Z,15.07
2023-03-07T16:29:39.655Z,14.86
2023-03-07T16:32:27.120Z,14.69
2023-03-07T16:35:21.944Z,14.73
2023-03-07T16:38:08.403Z,14.67
2023-03-07T16:40:54.512Z,14.60
2023-03-07T16:43:40.437Z,14.45
2023-03-07T16:46:26.701Z,14.38
2023-03-07T16:49:20.090Z,14.23
2023-03-07T16:52:06.860Z,14.16
2023-03-07T16:54:52.529Z,14.27
2023-03-07T16:57:38.733Z,14.21
2023-03-07T17:00:26.163Z,14.22
2023-03-07T17:03:12.142Z,14.19
2023-03-07T17:05:58.086Z,14.16
2023-03-07T17:08:44.804Z,14.13
2023-03-07T17:11:30.828Z,14.05
2023-03-07T17:14:17.440Z,14.08
2023-03-07T17:17:04.492Z,14.05
2023-03-07T17:19:50.797Z,13.92
2023-03-07T17:22:37.324Z,13.96
2023-03-07T17:25:23.772Z,13.79
2023-03-07T17:28:14.314Z,13.76
2023-03-07T17:31:00.288Z,13.84
2023-03-07T17:33:46.502Z,13.83
2023-03-07T17:36:32.620Z,13.73
2023-03-07T17:39:18.765Z,13.73
2023-03-07T17:42:05.175Z,13.71
2023-03-07T17:44:51.341Z,13.65
2023-03-07T17:47:37.550Z,13.64
2023-03-07T17:50:24.100Z,13.63
2023-03-07T17:53:09.884Z,13.61
2023-03-07T17:55:56.116Z,13.46
2023-03-07T17:58:42.741Z,13.57
2023-03-07T18:01:29.797Z,13.49
2023-03-07T18:04:15.736Z,13.41
2023-03-07T18:07:01.545Z,13.32
2023-03-07T18:09:53.639Z,13.39
2023-03-07T18:12:50.020Z,13.27
2023-03-07T18:15:35.773Z,13.28
2023-03-07T18:18:22.047Z,13.30
2023-03-07T18:21:11.969Z,13.25
2023-03-07T18:23:57.873Z,13.19
2023-03-07T18:26:44.068Z,13.06
2023-03-07T18:29:30.806Z,12.93
2023-03-07T18:32:17.195Z,13.00
2023-03-07T18:35:04.335Z,13.05
2023-03-07T18:37:50.154Z,12.94
2023-03-07T18:40:36.107Z,12.99
2023-03-07T18:43:22.004Z,12.87
2023-03-07T18:46:10.668Z,12.90
2023-03-07T18:48:57.741Z,12.87
2023-03-07T18:51:46.076Z,12.68
2023-03-07T18:54:32.404Z,12.67
2023-03-07T18:57:18.430Z,12.68
2023-03-07T19:00:05.658Z,12.69
2023-03-07T19:02:51.914Z,12.69
2023-03-07T19:05:45.704Z,12.62
2023-03-07T19:08:31.709Z,12.51
2023-03-07T19:11:17.742Z,12.43
2023-03-07T19:14:04.025Z,12.51
2023-03-07T19:16:50.175Z,12.53
2023-03-07T19:19:36.655Z,12.49
2023-03-07T19:22:27.472Z,12.46
2023-03-07T19:25:13.957Z,12.45
2023-03-07T19:27:59.926Z,12.39
2023-03-07T19:30:46.075Z,12.38
2023-03-07T19:33:32.401Z,12.23
2023-03-07T19:36:27.406Z,12.19
2023-03-07T19:39:20.665Z,12.23
2023-03-07T19:42:07.042Z,12.23
2023-03-07T19:44:54.689Z,12.22
2023-03-07T19:47:41.259Z,12.17
2023-03-07T19:50:27.697Z,12.12
2023-03-07T19:53:15.019Z,12.11
2023-03-07T19:56:10.901Z,12.05
2023-03-07T19:58:59.198Z,12.04
2023-03-07T20:01:46.733Z,11.89
2023-03-07T20:04:33.060Z,11.87
2023-03-07T20:07:19.091Z,11.87
2023-03-07T20:10:05.760Z,11.80
2023-03-07T20:12:53.100Z,11.78
2023-03-07T20:15:39.578Z,11.72
2023-03-07T20:18:25.708Z,11.69
2023-03-07T20:21:14.030Z,11.74
2023-03-07T20:24:00.424Z,11.46
2023-03-07T20:26:48.196Z,11.70
2023-03-07T20:29:34.971Z,11.62
2023-03-07T20:32:20.956Z,11.63
2023-03-07T20:35:07.570Z,11.63
2023-03-07T20:37:53.793Z,11.62
2023-03-07T20:40:40.100Z,11.54
2023-03-07T20:43:26.429Z,11.49
2023-03-07T20:46:14.282Z,11.55
2023-03-07T20:49:03.307Z,11.48
2023-03-07T20:51:52.201Z,11.43
2023-03-07T20:54:39.073Z,11.45
2023-03-07T20:57:25.785Z,11.40
2023-03-07T21:00:13.918Z,11.43
2023-03-07T21:03:05.976Z,11.40
2023-03-07T21:06:00.159Z,11.36
2023-03-07T21:08:47.726Z,11.35
2023-03-07T21:11:35.222Z,11.24
2023-03-07T21:14:21.236Z,11.23
2023-03-07T21:17:09.535Z,11.10
2023-03-07T21:19:55.905Z,11.16
2023-03-07T21:22:42.735Z,11.18
2023-03-07T21:25:29.940Z,11.17
2023-03-07T21:28:16.463Z,11.15
2023-03-07T21:31:07.461Z,11.17
2023-03-07T21:33:56.040Z,11.07
2023-03-07T21:36:42.752Z,11.08
2023-03-07T21:39:29.706Z,11.09
2023-03-07T21:42:16.547Z,11.13
2023-03-07T21:45:03.101Z,11.06
2023-03-07T21:47:53.378Z,11.07
2023-03-07T21:50:44.093Z,11.03
2023-03-07T21:53:30.689Z,11.06
2023-03-07T21:56:17.985Z,10.98
2023-03-07T21:59:03.984Z,11.00
2023-03-07T22:01:49.876Z,10.93
2023-03-07T22:04:35.796Z,10.92
2023-03-07T22:07:21.876Z,10.83
2023-03-07T22:10:08.903Z,10.85
2023-03-07T22:12:54.772Z,10.83
2023-03-07T22:15:40.549Z,10.86
2023-03-07T22:18:27.082Z,10.77
2023-03-07T22:21:14.449Z,10.74
2023-03-07T22:24:01.311Z,10.68
2023-03-07T22:26:47.522Z,10.64
2023-03-07T22:29:33.387Z,10.62
2023-03-07T22:32:19.252Z,10.60
2023-03-07T22:35:05.400Z,10.61
2023-03-07T22:37:51.638Z,10.48
2023-03-07T22:40:39.351Z,10.58
2023-03-07T22:43:25.493Z,10.57
2023-03-07T22:46:14.522Z,10.57
2023-03-07T22:49:00.567Z,10.51
2023-03-07T22:51:46.450Z,10.51
2023-03-07T22:54:33.479Z,10.39
2023-03-07T22:57:19.475Z,10.48
2023-03-07T23:00:06.375Z,10.45
2023-03-07T23:02:54.279Z,10.43
2023-03-07T23:05:41.677Z,10.45
2023-03-07T23:08:27.911Z,10.35
2023-03-07T23:11:14.563Z,10.41
2023-03-07T23:14:00.367Z,10.39
2023-03-07T23:16:46.352Z,10.38
2023-03-07T23:19:32.092Z,10.33
2023-03-07T23:22:18.052Z,10.27
2023-03-07T23:25:05.149Z,10.23
2023-03-07T23:27:51.166Z,10.32
2023-03-07T23:30:38.543Z,10.28
2023-03-07T23:33:24.932Z,10.27
2023-03-07T23:36:12.828Z,10.29
2023-03-07T23:38:59.292Z,10.28
2023-03-07T23:41:45.118Z,10.22
2023-03-07T23:44:30.837Z,10.19
2023-03-07T23:47:16.861Z,10.15
2023-03-07T23:50:02.982Z,10.17
2023-03-07T23:52:49.254Z,10.11
2023-03-07T23:55:35.144Z,9.94
2023-03-07T23:58:21.034Z,10.01
